createdAt,value
2019-02-05T00:00:37.715Z,100246.45
2019-02-05T00:03:08.849Z,100240.44
2019-02-05T00:05:37.529Z,100242.03
2019-02-05T00:08:06.279Z,100244.89
2019-02-05T00:10:34.958Z,100237.08
2019-02-05T00:13:03.849Z,100245.39
2019-02-05T00:15:32.981Z,100244.86
2019-02-05T00:18:01.735Z,100239.13
2019-02-05T00:20:30.419Z,100240.43
2019-02-05T00:22:59.283Z,100240.16
2019-02-05T00:25:28.007Z,100249.52
2019-02-05T00:27:56.738Z,100251.91
2019-02-05T00:30:26.078Z,100250.56
2019-02-05T00:32:54.804Z,100257.02
2019-02-05T00:35:23.527Z,100250.73
2019-02-05T00:37:52.510Z,100260.13
2019-02-05T00:40:21.356Z,100262.50
2019-02-05T00:42:50.093Z,100266.16
2019-02-05T00:45:20.115Z,100260.64
2019-02-05T00:47:49.746Z,100263.47
2019-02-05T00:50:19.577Z,100260.30
2019-02-05T00:52:48.525Z,100257.92
2019-02-05T00:55:20.636Z,100247.49
2019-02-05T00:57:49.366Z,100254.76
2019-02-05T01:00:27.370Z,100260.28
2019-02-05T01:02:56.195Z,100254.27
2019-02-05T01:05:25.030Z,100260.22
2019-02-05T01:07:53.907Z,100255.78
2019-02-05T01:10:24.445Z,100252.64
2019-02-05T01:12:53.959Z,100243.78
2019-02-05T01:15:24.921Z,100243.54
2019-02-05T01:17:53.955Z,100249.42
2019-02-05T01:20:23.536Z,100253.89
2019-02-05T01:22:52.567Z,100253.79
2019-02-05T01:25:22.530Z,100258.45
2019-02-05T01:27:51.535Z,100256.05
2019-02-05T01:30:25.208Z,100253.43
2019-02-05T01:32:53.942Z,100249.50
2019-02-05T01:35:23.275Z,100253.89
2019-02-05T01:37:52.883Z,100248.16
2019-02-05T01:40:26.157Z,100249.95
2019-02-05T01:42:55.182Z,100255.69
2019-02-05T01:45:24.870Z,100259.55
2019-02-05T01:47:53.615Z,100259.53
2019-02-05T01:50:26.844Z,100256.92
2019-02-05T01:52:55.987Z,100259.31
2019-02-05T01:55:24.891Z,100255.97
2019-02-05T01:57:53.724Z,100248.12
2019-02-05T02:00:24.922Z,100241.62
2019-02-05T02:02:53.665Z,100239.50
2019-02-05T02:05:22.399Z,100247.55
2019-02-05T02:07:51.393Z,100251.48
2019-02-05T02:10:23.157Z,100248.38
2019-02-05T02:12:52.194Z,100251.00
2019-02-05T02:15:21.074Z,100256.70
2019-02-05T02:17:50.104Z,100255.94
2019-02-05T02:20:20.410Z,100257.74
2019-02-05T02:22:49.825Z,100256.97
2019-02-05T02:25:18.962Z,100259.87
2019-02-05T02:27:48.900Z,100267.72
2019-02-05T02:30:23.851Z,100265.58
2019-02-05T02:32:52.603Z,100257.98
2019-02-05T02:35:21.322Z,100269.66
2019-02-05T02:37:50.768Z,100274.78
2019-02-05T02:40:19.511Z,100274.89
2019-02-05T02:42:48.343Z,100270.70
2019-02-05T02:45:17.749Z,100270.98
2019-02-05T02:47:46.585Z,100274.28
2019-02-05T02:50:19.709Z,100271.35
2019-02-05T02:52:49.250Z,100268.55
2019-02-05T02:55:17.983Z,100263.88
2019-02-05T02:57:46.808Z,100275.38
2019-02-05T03:00:23.034Z,100276.72
2019-02-05T03:06:32.823Z,100275.34
2019-02-05T03:09:01.634Z,100267.45
2019-02-05T03:11:30.535Z,100272.31
2019-02-05T03:13:59.275Z,100271.35
2019-02-05T03:16:28.024Z,100278.89
2019-02-05T03:18:56.977Z,100280.89
2019-02-05T03:21:25.720Z,100281.06
2019-02-05T03:23:54.458Z,100282.27
2019-02-05T03:26:23.608Z,100278.64
2019-02-05T03:28:52.339Z,100279.49
2019-02-05T03:31:21.068Z,100284.13
2019-02-05T03:33:49.847Z,100287.45
2019-02-05T03:36:18.575Z,100275.97
2019-02-05T03:38:47.313Z,100276.97
2019-02-05T03:41:16.184Z,100279.38
2019-02-05T03:43:45.401Z,100281.83
2019-02-05T03:46:14.938Z,100280.05
2019-02-05T03:48:44.517Z,100280.76
2019-02-05T03:51:34.208Z,100287.77
2019-02-05T03:54:08.617Z,100287.89
2019-02-05T03:57:10.416Z,100288.52
2019-02-05T03:59:51.050Z,100293.36
2019-02-05T04:02:38.098Z,100297.84
2019-02-05T04:05:24.950Z,100296.98
2019-02-05T04:07:59.138Z,100286.28
2019-02-05T04:10:42.833Z,100290.97
2019-02-05T04:13:29.382Z,100289.64
2019-02-05T04:16:23.765Z,100298.12
2019-02-05T04:19:13.659Z,100302.52
2019-02-05T04:21:48.096Z,100305.04
2019-02-05T04:24:25.494Z,100299.00
2019-02-05T04:27:12.035Z,100296.88
2019-02-05T04:30:04.859Z,100296.18
2019-02-05T04:32:39.581Z,100303.27
2019-02-05T04:35:29.311Z,100310.17
2019-02-05T04:38:18.521Z,100307.80
2019-02-05T04:41:17.243Z,100309.86
2019-02-05T04:43:51.554Z,100306.89
2019-02-05T04:46:28.795Z,100302.91
2019-02-05T04:49:24.665Z,100303.45
2019-02-05T04:52:02.029Z,100299.78
2019-02-05T04:54:36.754Z,100302.88
2019-02-05T04:57:30.555Z,100304.55
2019-02-05T05:00:34.127Z,100304.77
2019-02-05T05:03:05.776Z,100307.12
2019-02-05T05:05:49.275Z,100314.17
2019-02-05T05:08:54.076Z,100314.94
2019-02-05T05:11:25.591Z,100314.63
2019-02-05T05:13:54.332Z,100320.38
2019-02-05T05:16:23.071Z,100326.58
2019-02-05T05:18:51.883Z,100324.23
2019-02-05T05:21:20.833Z,100333.80
2019-02-05T05:23:50.043Z,100327.41
2019-02-05T05:26:19.187Z,100332.02
2019-02-05T05:28:48.121Z,100329.55
2019-02-05T05:31:16.871Z,100334.70
2019-02-05T05:33:45.764Z,100336.22
2019-02-05T05:36:14.602Z,100340.37
2019-02-05T05:38:43.353Z,100345.81
2019-02-05T05:41:12.183Z,100340.19
2019-02-05T05:43:40.946Z,100329.94
2019-02-05T05:46:18.399Z,100339.34
2019-02-05T05:48:47.129Z,100343.00
2019-02-05T05:51:15.855Z,100347.72
2019-02-05T05:53:44.931Z,100348.98
2019-02-05T05:56:13.703Z,100349.50
2019-02-05T05:58:42.438Z,100352.09
2019-02-05T06:01:11.211Z,100349.91
2019-02-05T06:03:39.950Z,100355.06
2019-02-05T06:06:08.680Z,100353.91
2019-02-05T06:08:37.486Z,100362.17
2019-02-05T06:11:06.220Z,100364.44
2019-02-05T06:13:35.019Z,100362.71
2019-02-05T06:16:04.401Z,100360.19
2019-02-05T06:18:33.146Z,100366.48
2019-02-05T06:21:01.884Z,100374.81
2019-02-05T06:23:30.863Z,100381.77
2019-02-05T06:25:59.611Z,100377.44
2019-02-05T06:28:34.664Z,100379.61
2019-02-05T06:30:59.435Z,100385.64
2019-02-05T06:33:28.176Z,100387.92
2019-02-05T06:35:56.917Z,100385.13
2019-02-05T06:38:27.277Z,100394.82
2019-02-05T06:40:56.015Z,100396.29
2019-02-05T06:43:24.765Z,100397.66
2019-02-05T06:45:53.747Z,100395.05
2019-02-05T06:48:22.471Z,100396.66
2019-02-05T06:50:51.208Z,100397.52
2019-02-05T06:53:19.994Z,100395.52
2019-02-05T06:55:48.717Z,100408.13
2019-02-05T06:58:17.503Z,100410.61
2019-02-05T07:00:46.710Z,100408.08
2019-02-05T07:03:15.830Z,100406.27
2019-02-05T07:05:44.560Z,100408.86
2019-02-05T07:08:13.423Z,100413.78
2019-02-05T07:10:42.150Z,100418.98
2019-02-05T07:13:10.884Z,100428.57
2019-02-05T07:15:39.658Z,100423.16
2019-02-05T07:18:08.387Z,100419.74
2019-02-05T07:20:37.391Z,100418.34
2019-02-05T07:23:07.040Z,100426.33
2019-02-05T07:25:35.782Z,100430.36
2019-02-05T07:28:04.620Z,100431.34
2019-02-05T07:30:33.594Z,100424.58
2019-02-05T07:33:02.325Z,100427.80
2019-02-05T07:35:31.067Z,100429.43
2019-02-05T07:38:00.154Z,100424.61
2019-02-05T07:40:28.885Z,100425.23
2019-02-05T07:42:59.113Z,100419.44
2019-02-05T07:45:27.997Z,100414.02
2019-02-05T07:47:56.727Z,100413.70
2019-02-05T07:50:27.062Z,100418.56
2019-02-05T07:52:56.059Z,100433.67
2019-02-05T07:55:25.269Z,100424.53
2019-02-05T07:57:54.002Z,100418.88
2019-02-05T08:00:25.690Z,100420.84
2019-02-05T08:02:54.416Z,100423.75
2019-02-05T08:05:31.581Z,100428.64
2019-02-05T08:08:01.116Z,100428.17
2019-02-05T08:10:30.221Z,100430.13
2019-02-05T08:12:59.462Z,100424.56
2019-02-05T08:15:33.230Z,100412.06
2019-02-05T08:18:01.987Z,100410.20
2019-02-05T08:20:30.944Z,100415.02
2019-02-05T08:22:59.782Z,100410.81
2019-02-05T08:25:28.522Z,100412.78
2019-02-05T08:27:57.293Z,100404.02
2019-02-05T08:30:40.736Z,100403.98
2019-02-05T08:33:09.727Z,100405.33
2019-02-05T08:35:38.568Z,100400.19
2019-02-05T08:38:07.293Z,100403.89
2019-02-05T08:40:36.511Z,100408.28
2019-02-05T08:43:05.916Z,100409.48
2019-02-05T08:45:36.877Z,100416.63
2019-02-05T08:48:08.472Z,100415.08
2019-02-05T08:50:37.394Z,100413.20
2019-02-05T08:53:06.226Z,100419.73
2019-02-05T08:55:35.121Z,100416.70
2019-02-05T08:58:06.955Z,100415.56
2019-02-05T09:00:37.779Z,100415.00
2019-02-05T09:03:09.189Z,100417.97
2019-02-05T09:05:38.139Z,100413.73
2019-02-05T09:08:07.071Z,100416.34
2019-02-05T09:10:37.697Z,100414.25
2019-02-05T09:13:06.552Z,100415.45
2019-02-05T09:15:35.268Z,100410.62
2019-02-05T09:18:04.247Z,100407.80
2019-02-05T09:20:32.982Z,100402.68
2019-02-05T09:23:01.915Z,100403.03
2019-02-05T09:25:30.780Z,100394.83
2019-02-05T09:27:59.514Z,100393.75
2019-02-05T09:30:33.678Z,100393.97
2019-02-05T09:33:05.083Z,100389.48
2019-02-05T09:35:33.818Z,100385.38
2019-02-05T09:38:02.542Z,100379.15
2019-02-05T09:40:33.307Z,100382.52
2019-02-05T09:43:04.327Z,100382.27
2019-02-05T09:45:33.730Z,100377.80
2019-02-05T09:48:04.317Z,100378.03
2019-02-05T09:50:44.202Z,100374.22
2019-02-05T09:53:03.494Z,100372.08
2019-02-05T09:55:32.260Z,100366.37
2019-02-05T09:58:00.988Z,100369.98
2019-02-05T10:00:35.310Z,100367.29
2019-02-05T10:03:04.374Z,100377.47
2019-02-05T10:05:34.754Z,100364.25
2019-02-05T10:08:03.487Z,100375.16
2019-02-05T10:10:32.302Z,100362.75
2019-02-05T10:13:01.086Z,100358.83
2019-02-05T10:15:32.434Z,100359.44
2019-02-05T10:18:01.633Z,100354.56
2019-02-05T10:20:30.572Z,100345.61
2019-02-05T10:23:01.728Z,100341.86
2019-02-05T10:25:30.814Z,100335.25
2019-02-05T10:28:04.361Z,100326.03
2019-02-05T10:30:38.184Z,100323.36
2019-02-05T10:33:07.687Z,100316.45
2019-02-05T10:35:36.576Z,100309.72
2019-02-05T10:38:06.556Z,100320.08
2019-02-05T10:40:35.236Z,100319.13
2019-02-05T10:43:04.642Z,100307.75
2019-02-05T10:45:34.960Z,100309.28
2019-02-05T10:48:04.832Z,100308.45
2019-02-05T10:50:34.798Z,100303.33
2019-02-05T10:53:03.551Z,100301.30
2019-02-05T10:55:32.227Z,100293.12
2019-02-05T10:58:00.910Z,100292.14
2019-02-05T11:00:33.104Z,100293.74
2019-02-05T11:03:08.594Z,100293.24
2019-02-05T11:05:37.651Z,100282.41
2019-02-05T11:08:06.450Z,100290.45
2019-02-05T11:10:35.246Z,100283.68
2019-02-05T11:13:05.191Z,100288.06
2019-02-05T11:15:33.982Z,100288.16
2019-02-05T11:18:04.920Z,100279.22
2019-02-05T11:20:33.772Z,100278.62
2019-02-05T11:23:02.464Z,100273.89
2019-02-05T11:25:31.353Z,100276.27
2019-02-05T11:28:00.143Z,100267.48
2019-02-05T11:33:18.262Z,100262.15
2019-02-05T11:35:46.949Z,100262.86
2019-02-05T11:38:15.736Z,100259.33
2019-02-05T11:40:44.533Z,100247.02
2019-02-05T11:43:13.227Z,100254.04
2019-02-05T11:45:41.936Z,100251.30
2019-02-05T11:48:13.991Z,100248.72
2019-02-05T11:50:42.878Z,100248.67
2019-02-05T11:53:11.570Z,100247.16
2019-02-05T11:55:40.519Z,100249.21
2019-02-05T11:58:09.208Z,100246.43
2019-02-05T12:00:39.470Z,100242.83
2019-02-05T12:03:09.830Z,100242.66
2019-02-05T12:05:38.904Z,100236.45
2019-02-05T12:08:07.799Z,100231.61
2019-02-05T12:10:36.562Z,100221.70
2019-02-05T12:13:05.352Z,100216.72
2019-02-05T12:15:34.033Z,100215.72
2019-02-05T12:18:02.777Z,100210.41
2019-02-05T12:20:31.463Z,100207.85
2019-02-05T12:23:00.427Z,100207.43
2019-02-05T12:25:29.271Z,100199.98
2019-02-05T12:27:58.061Z,100190.42
2019-02-05T12:30:43.878Z,100193.82
2019-02-05T12:33:02.400Z,100190.12
2019-02-05T12:35:31.082Z,100189.70
2019-02-05T12:37:59.768Z,100181.42
2019-02-05T12:40:28.961Z,100187.30
2019-02-05T12:42:57.859Z,100182.36
2019-02-05T12:45:29.250Z,100180.98
2019-02-05T12:47:57.982Z,100176.87
2019-02-05T12:50:34.972Z,100180.10
2019-02-05T12:53:04.466Z,100171.89
2019-02-05T12:55:33.179Z,100170.81
2019-02-05T12:58:01.869Z,100165.89
2019-02-05T13:00:33.467Z,100157.34
2019-02-05T13:03:02.768Z,100161.50
2019-02-05T13:05:31.561Z,100164.15
2019-02-05T13:08:00.588Z,100155.08
2019-02-05T13:10:41.109Z,100151.45
2019-02-05T13:13:10.231Z,100146.70
2019-02-05T13:15:38.915Z,100148.34
2019-02-05T13:18:07.802Z,100143.56
2019-02-05T13:20:37.527Z,100136.63
2019-02-05T13:23:07.116Z,100140.58
2019-02-05T13:25:36.106Z,100132.01
2019-02-05T13:28:07.254Z,100130.08
2019-02-05T13:30:37.344Z,100127.55
2019-02-05T13:33:08.144Z,100123.30
2019-02-05T13:35:37.706Z,100128.72
2019-02-05T13:38:06.809Z,100126.62
2019-02-05T13:40:35.479Z,100130.91
2019-02-05T13:43:05.425Z,100120.72
2019-02-05T13:45:36.755Z,100121.38
2019-02-05T13:48:07.057Z,100115.65
2019-02-05T13:50:35.912Z,100116.97
2019-02-05T13:53:05.508Z,100118.91
2019-02-05T13:55:37.312Z,100114.91
2019-02-05T13:58:06.551Z,100114.31
2019-02-05T14:00:44.190Z,100113.37
2019-02-05T14:03:13.343Z,100113.12
2019-02-05T14:05:42.239Z,100109.98
2019-02-05T14:08:10.921Z,100115.47
2019-02-05T14:10:42.076Z,100113.78
2019-02-05T14:13:10.775Z,100104.58
2019-02-05T14:15:42.269Z,100110.36
2019-02-05T14:18:11.428Z,100117.00
2019-02-05T14:20:40.219Z,100113.16
2019-02-05T14:23:08.913Z,100117.73
2019-02-05T14:25:37.822Z,100113.84
2019-02-05T14:28:06.717Z,100110.63
2019-02-05T14:30:44.087Z,100109.97
2019-02-05T14:33:12.849Z,100112.13
2019-02-05T14:35:41.637Z,100109.34
2019-02-05T14:38:10.671Z,100108.05
2019-02-05T14:40:39.371Z,100106.79
2019-02-05T14:43:08.156Z,100110.64
2019-02-05T14:45:37.305Z,100110.01
2019-02-05T14:48:06.999Z,100107.05
2019-02-05T14:50:38.388Z,100105.83
2019-02-05T14:53:08.440Z,100112.48
2019-02-05T14:55:37.236Z,100112.63
2019-02-05T14:58:08.223Z,100118.36
2019-02-05T15:00:38.073Z,100118.25
2019-02-05T15:03:12.060Z,100115.73
2019-02-05T15:05:41.051Z,100116.44
2019-02-05T15:08:10.487Z,100103.39
2019-02-05T15:10:39.277Z,100105.00
2019-02-05T15:13:08.576Z,100105.66
2019-02-05T15:15:37.356Z,100106.74
2019-02-05T15:18:07.488Z,100105.39
2019-02-05T15:20:41.519Z,100109.32
2019-02-05T15:23:10.542Z,100104.89
2019-02-05T15:25:39.232Z,100105.23
2019-02-05T15:28:08.406Z,100114.89
2019-02-05T15:30:42.379Z,100114.06
2019-02-05T15:33:32.376Z,100118.30
2019-02-05T15:36:02.889Z,100120.88
2019-02-05T15:38:31.847Z,100121.41
2019-02-05T15:41:00.538Z,100123.44
2019-02-05T15:43:29.690Z,100121.45
2019-02-05T15:45:58.377Z,100120.80
2019-02-05T15:48:28.546Z,100127.80
2019-02-05T15:50:57.430Z,100124.91
2019-02-05T15:53:26.401Z,100129.66
2019-02-05T15:55:55.295Z,100129.34
2019-02-05T15:58:24.471Z,100130.26
2019-02-05T16:00:53.281Z,100119.90
2019-02-05T16:03:21.948Z,100111.56
2019-02-05T16:05:50.673Z,100109.25
2019-02-05T16:08:22.383Z,100109.63
2019-02-05T16:10:51.073Z,100118.42
2019-02-05T16:13:19.916Z,100127.42
2019-02-05T16:15:48.597Z,100124.98
2019-02-05T16:18:17.312Z,100123.37
2019-02-05T16:20:46.028Z,100129.18
2019-02-05T16:23:14.810Z,100135.86
2019-02-05T16:25:43.501Z,100138.83
2019-02-05T16:28:12.332Z,100147.86
2019-02-05T16:30:41.009Z,100150.78
2019-02-05T16:33:09.810Z,100156.00
2019-02-05T16:35:38.627Z,100164.78
2019-02-05T16:38:07.315Z,100180.14
2019-02-05T16:40:38.516Z,100173.11
2019-02-05T16:43:07.518Z,100168.14
2019-02-05T16:45:36.308Z,100162.14
2019-02-05T16:48:05.403Z,100160.38
2019-02-05T16:50:40.358Z,100162.71
2019-02-05T16:53:09.841Z,100158.01
2019-02-05T16:55:38.626Z,100150.81
2019-02-05T16:58:07.869Z,100155.59
2019-02-05T17:00:37.854Z,100143.70
2019-02-05T17:03:07.647Z,100147.09
2019-02-05T17:05:41.720Z,100149.45
2019-02-05T17:08:10.789Z,100156.95
2019-02-05T17:10:39.474Z,100162.87
2019-02-05T17:13:08.218Z,100157.41
2019-02-05T17:15:36.902Z,100162.06
2019-02-05T17:18:06.543Z,100153.08
2019-02-05T17:20:35.752Z,100147.17
2019-02-05T17:23:05.521Z,100149.77
2019-02-05T17:25:36.098Z,100148.42
2019-02-05T17:28:06.365Z,100149.69
2019-02-05T17:30:37.450Z,100142.16
2019-02-05T17:33:06.547Z,100148.18
2019-02-05T17:35:35.968Z,100144.24
2019-02-05T17:38:06.950Z,100144.24
2019-02-05T17:40:35.831Z,100133.75
2019-02-05T17:43:04.876Z,100136.70
2019-02-05T17:45:38.834Z,100145.83
2019-02-05T17:48:10.634Z,100148.20
2019-02-05T17:50:39.324Z,100143.73
2019-02-05T17:53:08.006Z,100139.55
2019-02-05T17:55:36.845Z,100137.24
2019-02-05T17:58:06.446Z,100143.25
2019-02-05T18:00:52.311Z,100146.42
2019-02-05T18:03:21.285Z,100149.05
2019-02-05T18:05:49.980Z,100147.50
2019-02-05T18:08:18.707Z,100146.26
2019-02-05T18:10:47.398Z,100135.03
2019-02-05T18:13:16.087Z,100146.50
2019-02-05T18:15:45.125Z,100150.72
2019-02-05T18:18:14.096Z,100144.99
2019-02-05T18:20:43.463Z,100150.73
2019-02-05T18:23:12.284Z,100150.48
2019-02-05T18:25:40.975Z,100154.12
2019-02-05T18:28:09.656Z,100148.41
2019-02-05T18:30:39.498Z,100160.94
2019-02-05T18:33:08.209Z,100163.55
2019-02-05T18:35:36.901Z,100173.73
2019-02-05T18:38:09.105Z,100183.89
2019-02-05T18:40:37.621Z,100171.38
2019-02-05T18:43:06.629Z,100177.38
2019-02-05T18:45:35.766Z,100176.87
2019-02-05T18:48:05.162Z,100178.17
2019-02-05T18:50:33.773Z,100177.41
2019-02-05T18:53:02.601Z,100172.72
2019-02-05T18:55:34.373Z,100169.87
2019-02-05T18:58:09.562Z,100176.09
2019-02-05T19:00:38.630Z,100173.77
2019-02-05T19:03:14.992Z,100165.44
2019-02-05T19:05:37.612Z,100154.74
2019-02-05T19:08:06.877Z,100167.52
2019-02-05T19:10:35.764Z,100175.33
2019-02-05T19:13:04.858Z,100179.48
2019-02-05T19:15:36.105Z,100169.61
2019-02-05T19:18:05.970Z,100167.77
2019-02-05T19:20:34.661Z,100167.78
2019-02-05T19:23:04.818Z,100170.62
2019-02-05T19:25:51.444Z,100170.11
2019-02-05T19:28:24.581Z,100164.39
2019-02-05T19:30:54.855Z,100167.26
2019-02-05T19:33:27.304Z,100168.81
2019-02-05T19:35:54.004Z,100173.23
2019-02-05T19:38:22.704Z,100158.14
2019-02-05T19:40:57.618Z,100157.10
2019-02-05T19:43:23.342Z,100157.06
2019-02-05T19:46:06.169Z,100163.57
2019-02-05T19:48:36.441Z,100161.75
2019-02-05T19:51:05.508Z,100164.12
2019-02-05T19:56:38.087Z,100169.03
2019-02-05T19:59:04.481Z,100151.33
2019-02-05T20:01:33.169Z,100168.00
2019-02-05T20:04:02.096Z,100173.48
2019-02-05T20:06:30.794Z,100171.91
2019-02-05T20:08:59.673Z,100176.83
2019-02-05T20:11:28.504Z,100171.32
2019-02-05T20:13:57.191Z,100177.03
2019-02-05T20:16:35.701Z,100173.36
2019-02-05T20:19:04.491Z,100173.34
2019-02-05T20:21:42.456Z,100174.89
2019-02-05T20:24:28.898Z,100173.32
2019-02-05T20:26:57.633Z,100171.75
2019-02-05T20:29:26.370Z,100172.52
2019-02-05T20:31:55.099Z,100170.20
2019-02-05T20:34:24.346Z,100162.37
2019-02-05T20:36:53.082Z,100157.39
2019-02-05T20:39:38.285Z,100163.09
2019-02-05T20:42:07.095Z,100160.77
2019-02-05T20:44:35.825Z,100168.02
2019-02-05T20:47:05.029Z,100176.09
2019-02-05T20:49:33.830Z,100160.97
2019-02-05T20:52:02.554Z,100162.97
2019-02-05T20:54:31.287Z,100179.30
2019-02-05T20:57:00.133Z,100171.70
2019-02-05T20:59:30.372Z,100171.12
2019-02-05T21:01:59.268Z,100164.60
2019-02-05T21:04:28.473Z,100164.08
2019-02-05T21:06:59.671Z,100163.28
2019-02-05T21:09:27.684Z,100156.53
2019-02-05T21:11:56.650Z,100148.27
2019-02-05T21:14:25.368Z,100137.10
2019-02-05T21:16:54.106Z,100129.84
2019-02-05T21:19:23.276Z,100123.90
2019-02-05T21:21:52.470Z,100120.52
2019-02-05T21:24:21.195Z,100118.02
2019-02-05T21:26:49.974Z,100116.98
2019-02-05T21:29:18.738Z,100119.13
2019-02-05T21:31:47.474Z,100121.50
2019-02-05T21:34:16.399Z,100120.47
2019-02-05T21:36:45.079Z,100121.50
2019-02-05T21:39:13.806Z,100121.78
2019-02-05T21:41:42.708Z,100118.63
2019-02-05T21:44:11.433Z,100124.91
2019-02-05T21:46:40.169Z,100135.87
2019-02-05T21:49:08.964Z,100128.03
2019-02-05T21:51:40.882Z,100119.44
2019-02-05T21:54:08.247Z,100127.22
2019-02-05T21:56:37.012Z,100126.42
2019-02-05T21:59:05.741Z,100124.61
2019-02-05T22:01:34.505Z,100129.79
2019-02-05T22:04:03.695Z,100118.91
2019-02-05T22:06:32.932Z,100107.72
2019-02-05T22:09:01.725Z,100086.44
2019-02-05T22:11:30.888Z,100080.45
2019-02-05T22:13:59.605Z,100082.03
2019-02-05T22:16:28.330Z,100082.83
2019-02-05T22:18:57.100Z,100078.42
2019-02-05T22:21:25.903Z,100076.56
2019-02-05T22:23:54.627Z,100090.61
2019-02-05T22:26:23.809Z,100099.45
2019-02-05T22:28:53.889Z,100091.13
2019-02-05T22:31:22.757Z,100093.99
2019-02-05T22:33:51.522Z,100094.25
2019-02-05T22:36:20.253Z,100090.91
2019-02-05T22:38:48.980Z,100088.02
2019-02-05T22:41:18.588Z,100093.21
2019-02-05T22:43:47.330Z,100086.98
2019-02-05T22:46:16.050Z,100083.06
2019-02-05T22:48:45.079Z,100072.38
2019-02-05T22:51:13.965Z,100078.66
2019-02-05T22:53:42.697Z,100072.41
2019-02-05T22:56:11.776Z,100059.41
2019-02-05T22:58:40.674Z,100051.84
2019-02-05T23:01:18.190Z,100044.02
2019-02-05T23:03:50.646Z,100038.04
2019-02-05T23:06:34.705Z,100038.03
2019-02-05T23:09:24.670Z,100035.19
2019-02-05T23:12:05.186Z,100027.14
2019-02-05T23:14:33.917Z,100030.79
2019-02-05T23:17:03.022Z,100033.91
2019-02-05T23:19:32.279Z,100032.38
2019-02-05T23:22:01.043Z,100031.61
2019-02-05T23:24:29.912Z,100022.76
2019-02-05T23:26:59.040Z,100030.27
2019-02-05T23:29:27.766Z,100019.84
2019-02-05T23:31:56.628Z,100019.61
2019-02-05T23:34:25.424Z,100015.69
2019-02-05T23:36:54.133Z,100022.39
2019-02-05T23:39:22.857Z,100033.92
2019-02-05T23:42:00.890Z,100029.70
2019-02-05T23:44:29.609Z,100027.64
2019-02-05T23:46:58.618Z,100023.89
2019-02-05T23:49:27.399Z,100021.05
2019-02-05T23:51:56.185Z,100021.53
2019-02-05T23:54:24.913Z,100006.97
2019-02-05T23:56:53.759Z,100008.76
2019-02-05T23:59:22.573Z,100004.61
